ストックホルム/アーランダ の空港の天気 - METARとTAF

ストックホルム・アーランダ空港 ( ESSA / ARN ) - スウェーデン ストックホルム
飛行場実況気象(Metar)
観測時間01/23 04:50 CET (01/23 03:50 UTC)
風向・風速不定 1m/s
視程10km以上
天気現象
全天の8割程度の雲 雲底高度 670m
気温-5℃
湿度100%
気圧1019hPa
METARESSA 230350Z VRB02KT 9999 BKN022 M05/M05 Q1019 R01L/19//65 R01R/19//77 R08/19//69 NOSIG
過去の天気等 Google飛行場航空写真 Wunderground天気予報

過去48時間のMETAR

飛行場予報(TAF)
発表時間: 1/23 00:30 CET (1/22 23:30 UTC)
予報対象時間: 23日1時 CET ~ 24日1時 CET
風向・風速西南西 2m/s
視程10km以上
全天の8割程度の雲 雲底高度 460m
23日1時 CET から 確率 40% で
全天の8割程度の雲 雲底高度 370m
23日11時 CET ~ 23日13時 CET に徐々に
風向・風速南 5m/s
23日21時 CET ~ 23日23時 CET に徐々に
視程3,000m
天気現象弱い雪
23日23時 CET ~ 24日1時 CET に一時的に
視程1,200m
天気現象
全天を覆う雲 鉛直視程 240m
TAF ESSA 222330Z 2300/2324 25003KT 9999 BKN015
PROB40 2300/2307 BKN012
BECMG 2310/2312 18010KT
BECMG 2320/2322 3000 -SN
TEMPO 2322/2324 1200 SN VV008